sensor_id;sensor_type;location;lat;lon;timestamp;temperature;humidity
16301;DHT22;8258;51.020;4.248;2024-01-27T00:13:05;3.00;99.90
16301;DHT22;8258;51.020;4.248;2024-01-27T00:15:40;3.00;99.90
16301;DHT22;8258;51.020;4.248;2024-01-27T00:18:26;3.10;99.90
16301;DHT22;8258;51.020;4.248;2024-01-27T00:28:57;3.10;99.90
16301;DHT22;8258;51.020;4.248;2024-01-27T00:31:30;3.00;99.90
16301;DHT22;8258;51.020;4.248;2024-01-27T02:59:11;1.80;99.90
16301;DHT22;8258;51.020;4.248;2024-01-27T07:19:16;1.00;99.90
16301;DHT22;8258;51.020;4.248;2024-01-27T08:21:10;3.10;99.90
16301;DHT22;8258;51.020;4.248;2024-01-27T08:26:35;3.70;99.90
16301;DHT22;8258;51.020;4.248;2024-01-27T08:29:14;4.00;99.90
16301;DHT22;8258;51.020;4.248;2024-01-27T08:31:49;4.20;99.90
16301;DHT22;8258;51.020;4.248;2024-01-27T08:34:18;4.50;99.90
16301;DHT22;8258;51.020;4.248;2024-01-27T08:36:52;4.80;99.90
16301;DHT22;8258;51.020;4.248;2024-01-27T08:39:29;4.80;99.90
16301;DHT22;8258;51.020;4.248;2024-01-27T08:41:59;4.90;99.90
16301;DHT22;8258;51.020;4.248;2024-01-27T08:44:31;5.10;99.90
16301;DHT22;8258;51.020;4.248;2024-01-27T08:46:59;5.30;99.90
16301;DHT22;8258;51.020;4.248;2024-01-27T08:49:26;5.50;99.90
16301;DHT22;8258;51.020;4.248;2024-01-27T08:51:55;5.50;99.90
16301;DHT22;8258;51.020;4.248;2024-01-27T08:54:24;5.70;99.90
16301;DHT22;8258;51.020;4.248;2024-01-27T08:56:51;5.90;99.90
16301;DHT22;8258;51.020;4.248;2024-01-27T08:59:18;6.20;99.90
16301;DHT22;8258;51.020;4.248;2024-01-27T09:01:45;6.40;99.90
16301;DHT22;8258;51.020;4.248;2024-01-27T09:04:14;6.70;99.90
16301;DHT22;8258;51.020;4.248;2024-01-27T09:06:43;7.20;99.90
16301;DHT22;8258;51.020;4.248;2024-01-27T09:09:12;7.60;99.90
16301;DHT22;8258;51.020;4.248;2024-01-27T09:11:40;7.80;99.90
16301;DHT22;8258;51.020;4.248;2024-01-27T09:14:08;7.80;99.90
16301;DHT22;8258;51.020;4.248;2024-01-27T09:16:35;7.60;99.90
16301;DHT22;8258;51.020;4.248;2024-01-27T09:19:02;7.30;99.90
16301;DHT22;8258;51.020;4.248;2024-01-27T09:21:29;7.30;99.90
16301;DHT22;8258;51.020;4.248;2024-01-27T09:23:58;7.50;99.90
16301;DHT22;8258;51.020;4.248;2024-01-27T09:26:28;7.60;99.90
16301;DHT22;8258;51.020;4.248;2024-01-27T09:28:55;7.90;99.90
16301;DHT22;8258;51.020;4.248;2024-01-27T09:31:22;8.20;99.90
16301;DHT22;8258;51.020;4.248;2024-01-27T09:33:51;8.20;99.90
16301;DHT22;8258;51.020;4.248;2024-01-27T09:36:19;8.10;99.90
16301;DHT22;8258;51.020;4.248;2024-01-27T09:38:47;8.50;99.90
16301;DHT22;8258;51.020;4.248;2024-01-27T09:41:15;8.70;99.90
16301;DHT22;8258;51.020;4.248;2024-01-27T09:43:45;8.70;99.90
16301;DHT22;8258;51.020;4.248;2024-01-27T09:48:50;9.50;99.90
16301;DHT22;8258;51.020;4.248;2024-01-27T10:29:28;8.90;99.90
16301;DHT22;8258;51.020;4.248;2024-01-27T10:32:15;8.70;99.90
16301;DHT22;8258;51.020;4.248;2024-01-27T10:34:45;8.60;99.90
16301;DHT22;8258;51.020;4.248;2024-01-27T10:37:15;8.60;99.90
16301;DHT22;8258;51.020;4.248;2024-01-27T10:39:48;8.60;99.90
16301;DHT22;8258;51.020;4.248;2024-01-27T10:42:23;8.70;99.90
16301;DHT22;8258;51.020;4.248;2024-01-27T10:44:55;8.70;99.90
16301;DHT22;8258;51.020;4.248;2024-01-27T10:47:34;8.80;99.90
16301;DHT22;8258;51.020;4.248;2024-01-27T10:50:19;8.80;99.90
16301;DHT22;8258;51.020;4.248;2024-01-27T10:53:03;8.60;99.90
16301;DHT22;8258;51.020;4.248;2024-01-27T10:55:43;8.60;99.90
16301;DHT22;8258;51.020;4.248;2024-01-27T10:58:27;9.90;99.90
16301;DHT22;8258;51.020;4.248;2024-01-27T11:01:13;10.80;99.90
16301;DHT22;8258;51.020;4.248;2024-01-27T11:03:53;11.20;99.90
16301;DHT22;8258;51.020;4.248;2024-01-27T11:06:25;11.20;99.90
16301;DHT22;8258;51.020;4.248;2024-01-27T11:08:56;11.50;99.90
16301;DHT22;8258;51.020;4.248;2024-01-27T11:11:24;11.80;99.90
16301;DHT22;8258;51.020;4.248;2024-01-27T11:13:52;12.30;99.90
16301;DHT22;8258;51.020;4.248;2024-01-27T11:16:23;12.20;99.90
16301;DHT22;8258;51.020;4.248;2024-01-27T11:18:51;12.20;99.90
16301;DHT22;8258;51.020;4.248;2024-01-27T11:21:18;12.40;99.90
16301;DHT22;8258;51.020;4.248;2024-01-27T11:23:47;13.10;99.90
16301;DHT22;8258;51.020;4.248;2024-01-27T11:26:20;13.40;99.90
16301;DHT22;8258;51.020;4.248;2024-01-27T11:28:52;13.30;99.90
16301;DHT22;8258;51.020;4.248;2024-01-27T11:31:27;13.70;99.90
16301;DHT22;8258;51.020;4.248;2024-01-27T11:33:58;13.30;99.90
16301;DHT22;8258;51.020;4.248;2024-01-27T11:36:27;13.60;99.90
16301;DHT22;8258;51.020;4.248;2024-01-27T11:39:23;13.40;99.90
16301;DHT22;8258;51.020;4.248;2024-01-27T11:42:04;12.90;99.90
16301;DHT22;8258;51.020;4.248;2024-01-27T11:44:34;13.00;99.90
16301;DHT22;8258;51.020;4.248;2024-01-27T11:47:04;12.70;99.90
16301;DHT22;8258;51.020;4.248;2024-01-27T11:49:34;12.10;99.90
16301;DHT22;8258;51.020;4.248;2024-01-27T11:52:06;12.00;99.90
16301;DHT22;8258;51.020;4.248;2024-01-27T11:54:34;12.00;99.90
16301;DHT22;8258;51.020;4.248;2024-01-27T11:57:07;12.00;99.90
16301;DHT22;8258;51.020;4.248;2024-01-27T11:59:34;11.40;99.90
16301;DHT22;8258;51.020;4.248;2024-01-27T12:02:14;11.30;99.90
16301;DHT22;8258;51.020;4.248;2024-01-27T12:04:44;11.50;99.90
16301;DHT22;8258;51.020;4.248;2024-01-27T12:07:15;11.20;99.90
16301;DHT22;8258;51.020;4.248;2024-01-27T12:09:44;10.80;99.90
16301;DHT22;8258;51.020;4.248;2024-01-27T12:12:14;11.00;99.90
16301;DHT22;8258;51.020;4.248;2024-01-27T12:14:46;11.30;99.90
16301;DHT22;8258;51.020;4.248;2024-01-27T12:17:21;11.60;99.90
16301;DHT22;8258;51.020;4.248;2024-01-27T12:19:57;11.90;99.90
16301;DHT22;8258;51.020;4.248;2024-01-27T12:22:29;11.70;99.90
16301;DHT22;8258;51.020;4.248;2024-01-27T12:25:08;11.60;99.90
16301;DHT22;8258;51.020;4.248;2024-01-27T12:30:13;12.00;99.90
16301;DHT22;8258;51.020;4.248;2024-01-27T12:32:44;12.00;99.90
16301;DHT22;8258;51.020;4.248;2024-01-27T12:35:13;11.60;99.90
16301;DHT22;8258;51.020;4.248;2024-01-27T12:37:43;11.60;99.90
16301;DHT22;8258;51.020;4.248;2024-01-27T12:40:25;11.50;99.90
16301;DHT22;8258;51.020;4.248;2024-01-27T12:42:53;11.90;99.90
16301;DHT22;8258;51.020;4.248;2024-01-27T12:45:24;11.90;99.90
16301;DHT22;8258;51.020;4.248;2024-01-27T12:47:59;11.90;99.90
16301;DHT22;8258;51.020;4.248;2024-01-27T12:50:26;12.20;99.90
16301;DHT22;8258;51.020;4.248;2024-01-27T12:52:53;12.70;99.90
16301;DHT22;8258;51.020;4.248;2024-01-27T12:55:23;12.90;99.90
16301;DHT22;8258;51.020;4.248;2024-01-27T12:57:52;12.30;99.90
16301;DHT22;8258;51.020;4.248;2024-01-27T13:00:21;12.20;99.90
16301;DHT22;8258;51.020;4.248;2024-01-27T13:02:50;12.30;99.90
16301;DHT22;8258;51.020;4.248;2024-01-27T13:05:21;12.10;99.90
16301;DHT22;8258;51.020;4.248;2024-01-27T13:07:48;12.10;99.90
16301;DHT22;8258;51.020;4.248;2024-01-27T13:10:16;12.60;99.90
16301;DHT22;8258;51.020;4.248;2024-01-27T13:12:44;12.50;99.90
16301;DHT22;8258;51.020;4.248;2024-01-27T13:15:16;12.40;99.90
16301;DHT22;8258;51.020;4.248;2024-01-27T13:17:45;12.80;99.90
16301;DHT22;8258;51.020;4.248;2024-01-27T13:20:15;13.10;99.90
16301;DHT22;8258;51.020;4.248;2024-01-27T13:22:45;13.10;99.90
16301;DHT22;8258;51.020;4.248;2024-01-27T13:25:15;13.00;99.90
16301;DHT22;8258;51.020;4.248;2024-01-27T13:27:43;13.60;99.90
16301;DHT22;8258;51.020;4.248;2024-01-27T13:30:12;13.70;99.90
16301;DHT22;8258;51.020;4.248;2024-01-27T13:32:40;13.10;99.90
16301;DHT22;8258;51.020;4.248;2024-01-27T13:35:11;12.70;99.90
16301;DHT22;8258;51.020;4.248;2024-01-27T13:37:39;12.90;99.90
16301;DHT22;8258;51.020;4.248;2024-01-27T13:40:08;12.70;99.90
16301;DHT22;8258;51.020;4.248;2024-01-27T13:42:36;12.40;99.90
16301;DHT22;8258;51.020;4.248;2024-01-27T13:45:04;11.90;99.90
16301;DHT22;8258;51.020;4.248;2024-01-27T13:47:31;11.80;99.90
16301;DHT22;8258;51.020;4.248;2024-01-27T13:49:58;11.80;99.90
16301;DHT22;8258;51.020;4.248;2024-01-27T13:52:26;12.00;99.90
16301;DHT22;8258;51.020;4.248;2024-01-27T13:54:55;12.10;99.90
16301;DHT22;8258;51.020;4.248;2024-01-27T13:57:23;12.80;99.90
16301;DHT22;8258;51.020;4.248;2024-01-27T13:59:51;12.90;99.90
16301;DHT22;8258;51.020;4.248;2024-01-27T14:02:18;13.50;99.90
16301;DHT22;8258;51.020;4.248;2024-01-27T14:04:45;14.10;99.90
16301;DHT22;8258;51.020;4.248;2024-01-27T14:07:12;14.30;99.90
16301;DHT22;8258;51.020;4.248;2024-01-27T14:09:39;14.50;99.90
16301;DHT22;8258;51.020;4.248;2024-01-27T14:12:07;14.10;99.90
16301;DHT22;8258;51.020;4.248;2024-01-27T14:14:35;14.20;99.90
16301;DHT22;8258;51.020;4.248;2024-01-27T14:17:05;14.90;99.40
16301;DHT22;8258;51.020;4.248;2024-01-27T14:19:32;15.40;97.00
16301;DHT22;8258;51.020;4.248;2024-01-27T14:21:59;15.10;97.00
16301;DHT22;8258;51.020;4.248;2024-01-27T14:24:26;14.60;97.50
16301;DHT22;8258;51.020;4.248;2024-01-27T14:26:53;14.00;99.90
16301;DHT22;8258;51.020;4.248;2024-01-27T14:29:21;14.00;99.90
16301;DHT22;8258;51.020;4.248;2024-01-27T14:31:49;13.60;99.90
16301;DHT22;8258;51.020;4.248;2024-01-27T14:34:16;13.50;99.90
16301;DHT22;8258;51.020;4.248;2024-01-27T14:36:44;13.30;99.90
16301;DHT22;8258;51.020;4.248;2024-01-27T14:39:11;13.00;99.90
16301;DHT22;8258;51.020;4.248;2024-01-27T14:41:38;12.80;99.90
16301;DHT22;8258;51.020;4.248;2024-01-27T14:44:05;12.50;99.90
16301;DHT22;8258;51.020;4.248;2024-01-27T14:46:32;11.70;99.90
16301;DHT22;8258;51.020;4.248;2024-01-27T14:49:07;11.30;99.90
16301;DHT22;8258;51.020;4.248;2024-01-27T14:51:34;11.20;99.90
16301;DHT22;8258;51.020;4.248;2024-01-27T14:54:01;11.10;99.90
16301;DHT22;8258;51.020;4.248;2024-01-27T14:56:30;11.00;99.90
16301;DHT22;8258;51.020;4.248;2024-01-27T14:58:57;10.90;99.90
16301;DHT22;8258;51.020;4.248;2024-01-27T15:01:25;10.60;99.90
16301;DHT22;8258;51.020;4.248;2024-01-27T15:03:55;10.40;99.90
16301;DHT22;8258;51.020;4.248;2024-01-27T15:06:23;10.30;99.90
16301;DHT22;8258;51.020;4.248;2024-01-27T15:08:50;10.20;99.90
16301;DHT22;8258;51.020;4.248;2024-01-27T15:11:17;10.10;99.90
16301;DHT22;8258;51.020;4.248;2024-01-27T15:13:44;10.00;99.90
16301;DHT22;8258;51.020;4.248;2024-01-27T15:16:12;9.80;99.90
16301;DHT22;8258;51.020;4.248;2024-01-27T15:18:40;9.70;99.90
16301;DHT22;8258;51.020;4.248;2024-01-27T15:21:09;9.60;99.90
16301;DHT22;8258;51.020;4.248;2024-01-27T15:23:38;9.50;99.90
16301;DHT22;8258;51.020;4.248;2024-01-27T15:26:05;9.40;99.90
16301;DHT22;8258;51.020;4.248;2024-01-27T15:28:32;9.40;99.90
16301;DHT22;8258;51.020;4.248;2024-01-27T15:30:59;9.20;99.90
16301;DHT22;8258;51.020;4.248;2024-01-27T15:33:26;9.30;99.90
16301;DHT22;8258;51.020;4.248;2024-01-27T15:35:53;9.30;99.90
16301;DHT22;8258;51.020;4.248;2024-01-27T15:38:20;9.40;99.90
16301;DHT22;8258;51.020;4.248;2024-01-27T15:40:49;9.30;99.90
16301;DHT22;8258;51.020;4.248;2024-01-27T15:43:16;9.20;99.90
16301;DHT22;8258;51.020;4.248;2024-01-27T15:45:43;9.30;99.90
16301;DHT22;8258;51.020;4.248;2024-01-27T15:48:10;9.10;99.90
16301;DHT22;8258;51.020;4.248;2024-01-27T15:50:40;9.00;99.90
16301;DHT22;8258;51.020;4.248;2024-01-27T15:53:10;8.90;99.90
16301;DHT22;8258;51.020;4.248;2024-01-27T15:55:38;8.90;99.90
16301;DHT22;8258;51.020;4.248;2024-01-27T15:58:07;9.00;99.90
16301;DHT22;8258;51.020;4.248;2024-01-27T16:00:35;9.00;99.90
16301;DHT22;8258;51.020;4.248;2024-01-27T16:03:02;8.60;99.90
16301;DHT22;8258;51.020;4.248;2024-01-27T16:05:32;8.50;99.90
16301;DHT22;8258;51.020;4.248;2024-01-27T16:08:05;8.30;99.90
16301;DHT22;8258;51.020;4.248;2024-01-27T16:10:51;8.20;99.90
16301;DHT22;8258;51.020;4.248;2024-01-27T16:13:38;8.00;99.90
16301;DHT22;8258;51.020;4.248;2024-01-27T16:16:05;8.00;99.90
16301;DHT22;8258;51.020;4.248;2024-01-27T16:18:32;8.00;99.90
16301;DHT22;8258;51.020;4.248;2024-01-27T16:20:59;8.00;99.90
16301;DHT22;8258;51.020;4.248;2024-01-27T16:23:27;8.00;99.90
16301;DHT22;8258;51.020;4.248;2024-01-27T16:25:56;7.90;99.90
16301;DHT22;8258;51.020;4.248;2024-01-27T16:28:24;8.00;99.90
16301;DHT22;8258;51.020;4.248;2024-01-27T16:31:03;7.90;99.90
16301;DHT22;8258;51.020;4.248;2024-01-27T16:33:31;7.90;99.90
16301;DHT22;8258;51.020;4.248;2024-01-27T16:35:58;7.80;99.90
16301;DHT22;8258;51.020;4.248;2024-01-27T16:38:25;7.80;99.90
16301;DHT22;8258;51.020;4.248;2024-01-27T16:40:54;7.80;99.90
16301;DHT22;8258;51.020;4.248;2024-01-27T16:43:28;7.70;99.90
16301;DHT22;8258;51.020;4.248;2024-01-27T16:48:39;7.50;99.90
16301;DHT22;8258;51.020;4.248;2024-01-27T16:51:06;7.30;99.90
16301;DHT22;8258;51.020;4.248;2024-01-27T16:53:33;7.30;99.90
16301;DHT22;8258;51.020;4.248;2024-01-27T16:56:01;7.20;99.90
16301;DHT22;8258;51.020;4.248;2024-01-27T16:58:28;7.10;99.90
16301;DHT22;8258;51.020;4.248;2024-01-27T17:00:55;7.00;99.90
16301;DHT22;8258;51.020;4.248;2024-01-27T17:03:22;6.90;99.90
16301;DHT22;8258;51.020;4.248;2024-01-27T17:05:51;6.90;99.90
16301;DHT22;8258;51.020;4.248;2024-01-27T17:08:18;6.90;99.90
16301;DHT22;8258;51.020;4.248;2024-01-27T17:10:46;6.90;99.90
16301;DHT22;8258;51.020;4.248;2024-01-27T17:13:13;7.00;99.90
16301;DHT22;8258;51.020;4.248;2024-01-27T17:15:43;7.00;99.90
16301;DHT22;8258;51.020;4.248;2024-01-27T17:18:13;6.90;99.90
16301;DHT22;8258;51.020;4.248;2024-01-27T17:21:00;6.70;99.90
16301;DHT22;8258;51.020;4.248;2024-01-27T17:23:34;6.70;99.90
16301;DHT22;8258;51.020;4.248;2024-01-27T17:26:05;6.70;99.90
16301;DHT22;8258;51.020;4.248;2024-01-27T17:28:33;6.60;99.90
16301;DHT22;8258;51.020;4.248;2024-01-27T17:31:04;6.60;99.90
16301;DHT22;8258;51.020;4.248;2024-01-27T17:33:35;6.50;99.90
16301;DHT22;8258;51.020;4.248;2024-01-27T17:36:08;6.30;99.90
16301;DHT22;8258;51.020;4.248;2024-01-27T17:38:36;6.20;99.90
16301;DHT22;8258;51.020;4.248;2024-01-27T17:41:09;6.10;99.90
16301;DHT22;8258;51.020;4.248;2024-01-27T17:43:37;6.00;99.90
16301;DHT22;8258;51.020;4.248;2024-01-27T17:46:07;6.00;99.90
16301;DHT22;8258;51.020;4.248;2024-01-27T17:48:40;5.90;99.90
16301;DHT22;8258;51.020;4.248;2024-01-27T17:51:11;5.90;99.90
16301;DHT22;8258;51.020;4.248;2024-01-27T17:53:42;5.80;99.90
16301;DHT22;8258;51.020;4.248;2024-01-27T17:56:20;5.70;99.90
16301;DHT22;8258;51.020;4.248;2024-01-27T17:59:03;5.60;99.90
16301;DHT22;8258;51.020;4.248;2024-01-27T18:01:34;5.50;99.90
16301;DHT22;8258;51.020;4.248;2024-01-27T18:04:03;5.40;99.90
16301;DHT22;8258;51.020;4.248;2024-01-27T18:06:36;5.40;99.90
16301;DHT22;8258;51.020;4.248;2024-01-27T18:09:06;5.40;99.90
16301;DHT22;8258;51.020;4.248;2024-01-27T18:11:35;5.30;99.90
16301;DHT22;8258;51.020;4.248;2024-01-27T18:14:06;5.30;99.90
16301;DHT22;8258;51.020;4.248;2024-01-27T18:16:37;5.20;99.90
16301;DHT22;8258;51.020;4.248;2024-01-27T18:19:05;5.10;99.90
16301;DHT22;8258;51.020;4.248;2024-01-27T18:21:41;5.00;99.90
16301;DHT22;8258;51.020;4.248;2024-01-27T18:24:15;5.00;99.90
16301;DHT22;8258;51.020;4.248;2024-01-27T18:26:44;4.90;99.90
16301;DHT22;8258;51.020;4.248;2024-01-27T18:29:12;4.90;99.90
16301;DHT22;8258;51.020;4.248;2024-01-27T18:31:42;4.80;99.90
16301;DHT22;8258;51.020;4.248;2024-01-27T18:34:12;4.80;99.90
16301;DHT22;8258;51.020;4.248;2024-01-27T18:36:45;4.70;99.90
16301;DHT22;8258;51.020;4.248;2024-01-27T18:39:12;4.50;99.90
16301;DHT22;8258;51.020;4.248;2024-01-27T18:41:44;4.50;99.90
16301;DHT22;8258;51.020;4.248;2024-01-27T18:44:14;4.40;99.90
16301;DHT22;8258;51.020;4.248;2024-01-27T18:46:44;4.30;99.90
16301;DHT22;8258;51.020;4.248;2024-01-27T18:49:14;4.20;99.90
16301;DHT22;8258;51.020;4.248;2024-01-27T18:51:45;4.30;99.90
16301;DHT22;8258;51.020;4.248;2024-01-27T18:54:16;4.20;99.90
16301;DHT22;8258;51.020;4.248;2024-01-27T18:56:44;4.10;99.90
16301;DHT22;8258;51.020;4.248;2024-01-27T18:59:13;4.10;99.90
16301;DHT22;8258;51.020;4.248;2024-01-27T19:01:42;4.10;99.90
16301;DHT22;8258;51.020;4.248;2024-01-27T19:04:10;4.10;99.90
16301;DHT22;8258;51.020;4.248;2024-01-27T19:06:39;4.00;99.90
16301;DHT22;8258;51.020;4.248;2024-01-27T19:09:12;4.00;99.90
16301;DHT22;8258;51.020;4.248;2024-01-27T19:11:41;3.90;99.90
16301;DHT22;8258;51.020;4.248;2024-01-27T19:14:10;3.90;99.90
16301;DHT22;8258;51.020;4.248;2024-01-27T19:16:39;3.70;99.90
16301;DHT22;8258;51.020;4.248;2024-01-27T19:19:07;3.70;99.90
16301;DHT22;8258;51.020;4.248;2024-01-27T19:21:36;3.70;99.90
16301;DHT22;8258;51.020;4.248;2024-01-27T19:24:04;3.60;99.90
16301;DHT22;8258;51.020;4.248;2024-01-27T19:26:34;3.50;99.90
16301;DHT22;8258;51.020;4.248;2024-01-27T19:29:04;3.50;99.90
16301;DHT22;8258;51.020;4.248;2024-01-27T19:31:35;3.40;99.90
16301;DHT22;8258;51.020;4.248;2024-01-27T19:34:03;3.40;99.90
16301;DHT22;8258;51.020;4.248;2024-01-27T19:36:31;3.30;99.90
16301;DHT22;8258;51.020;4.248;2024-01-27T19:39:00;3.20;99.90
16301;DHT22;8258;51.020;4.248;2024-01-27T19:41:28;3.20;99.90
16301;DHT22;8258;51.020;4.248;2024-01-27T19:43:58;3.30;99.90
16301;DHT22;8258;51.020;4.248;2024-01-27T19:46:26;3.30;99.90
16301;DHT22;8258;51.020;4.248;2024-01-27T19:48:55;3.40;99.90
16301;DHT22;8258;51.020;4.248;2024-01-27T19:51:25;3.50;99.90
16301;DHT22;8258;51.020;4.248;2024-01-27T19:53:53;3.50;99.90
16301;DHT22;8258;51.020;4.248;2024-01-27T19:56:21;3.50;99.90
16301;DHT22;8258;51.020;4.248;2024-01-27T19:58:49;3.40;99.90
16301;DHT22;8258;51.020;4.248;2024-01-27T20:01:24;3.40;99.90
16301;DHT22;8258;51.020;4.248;2024-01-27T20:03:53;3.40;99.90
16301;DHT22;8258;51.020;4.248;2024-01-27T20:06:27;3.30;99.90
16301;DHT22;8258;51.020;4.248;2024-01-27T20:08:55;3.30;99.90
16301;DHT22;8258;51.020;4.248;2024-01-27T20:11:23;3.20;99.90
16301;DHT22;8258;51.020;4.248;2024-01-27T20:13:53;3.10;99.90
16301;DHT22;8258;51.020;4.248;2024-01-27T20:16:26;3.10;99.90
16301;DHT22;8258;51.020;4.248;2024-01-27T20:18:55;3.10;99.90
16301;DHT22;8258;51.020;4.248;2024-01-27T20:21:23;3.10;99.90
16301;DHT22;8258;51.020;4.248;2024-01-27T20:23:52;3.10;99.90
16301;DHT22;8258;51.020;4.248;2024-01-27T20:26:20;3.10;99.90
16301;DHT22;8258;51.020;4.248;2024-01-27T20:28:48;3.00;99.90
16301;DHT22;8258;51.020;4.248;2024-01-27T20:31:16;3.00;99.90
16301;DHT22;8258;51.020;4.248;2024-01-27T20:33:47;2.90;99.90
16301;DHT22;8258;51.020;4.248;2024-01-27T20:36:15;2.80;99.90
16301;DHT22;8258;51.020;4.248;2024-01-27T20:38:43;2.80;99.90
16301;DHT22;8258;51.020;4.248;2024-01-27T20:41:15;2.60;99.90
16301;DHT22;8258;51.020;4.248;2024-01-27T20:43:47;2.70;99.90
16301;DHT22;8258;51.020;4.248;2024-01-27T20:46:16;2.60;99.90
16301;DHT22;8258;51.020;4.248;2024-01-27T20:48:46;2.60;99.90
16301;DHT22;8258;51.020;4.248;2024-01-27T20:51:14;2.60;99.90
16301;DHT22;8258;51.020;4.248;2024-01-27T20:53:44;2.60;99.90
16301;DHT22;8258;51.020;4.248;2024-01-27T20:56:12;2.50;99.90
16301;DHT22;8258;51.020;4.248;2024-01-27T20:58:39;2.60;99.90
16301;DHT22;8258;51.020;4.248;2024-01-27T21:01:09;2.70;99.90
16301;DHT22;8258;51.020;4.248;2024-01-27T21:03:38;2.50;99.90
16301;DHT22;8258;51.020;4.248;2024-01-27T21:06:07;2.40;99.90
16301;DHT22;8258;51.020;4.248;2024-01-27T21:08:36;2.30;99.90
16301;DHT22;8258;51.020;4.248;2024-01-27T21:11:05;2.30;99.90
16301;DHT22;8258;51.020;4.248;2024-01-27T21:13:35;2.30;99.90
16301;DHT22;8258;51.020;4.248;2024-01-27T21:16:04;2.30;99.90
16301;DHT22;8258;51.020;4.248;2024-01-27T21:18:32;2.30;99.90
16301;DHT22;8258;51.020;4.248;2024-01-27T21:21:03;2.40;99.90
16301;DHT22;8258;51.020;4.248;2024-01-27T21:23:37;2.30;99.90
16301;DHT22;8258;51.020;4.248;2024-01-27T21:26:06;2.30;99.90
16301;DHT22;8258;51.020;4.248;2024-01-27T21:28:33;2.30;99.90
16301;DHT22;8258;51.020;4.248;2024-01-27T21:31:04;2.40;99.90
16301;DHT22;8258;51.020;4.248;2024-01-27T21:33:33;2.40;99.90
16301;DHT22;8258;51.020;4.248;2024-01-27T21:36:03;2.40;99.90
16301;DHT22;8258;51.020;4.248;2024-01-27T21:38:34;2.40;99.90
16301;DHT22;8258;51.020;4.248;2024-01-27T21:41:04;2.40;99.90
16301;DHT22;8258;51.020;4.248;2024-01-27T21:43:32;2.30;99.90
16301;DHT22;8258;51.020;4.248;2024-01-27T21:46:01;2.10;99.90
16301;DHT22;8258;51.020;4.248;2024-01-27T21:48:30;2.00;99.90
16301;DHT22;8258;51.020;4.248;2024-01-27T21:50:57;1.90;99.90
16301;DHT22;8258;51.020;4.248;2024-01-27T21:53:26;1.90;99.90
16301;DHT22;8258;51.020;4.248;2024-01-27T21:56:03;1.80;99.90
16301;DHT22;8258;51.020;4.248;2024-01-27T21:58:31;1.70;99.90
16301;DHT22;8258;51.020;4.248;2024-01-27T22:00:59;1.80;99.90
16301;DHT22;8258;51.020;4.248;2024-01-27T22:03:27;1.80;99.90
16301;DHT22;8258;51.020;4.248;2024-01-27T22:06:02;1.90;99.90
16301;DHT22;8258;51.020;4.248;2024-01-27T22:08:32;1.90;99.90
16301;DHT22;8258;51.020;4.248;2024-01-27T22:11:01;2.00;99.90
16301;DHT22;8258;51.020;4.248;2024-01-27T22:13:31;2.00;99.90
16301;DHT22;8258;51.020;4.248;2024-01-27T22:15:58;2.00;99.90
16301;DHT22;8258;51.020;4.248;2024-01-27T22:18:26;2.00;99.90
16301;DHT22;8258;51.020;4.248;2024-01-27T22:20:57;2.00;99.90
16301;DHT22;8258;51.020;4.248;2024-01-27T22:23:41;1.90;99.90
16301;DHT22;8258;51.020;4.248;2024-01-27T22:26:17;1.90;99.90
16301;DHT22;8258;51.020;4.248;2024-01-27T22:28:52;1.90;99.90
16301;DHT22;8258;51.020;4.248;2024-01-27T22:31:30;1.90;99.90
16301;DHT22;8258;51.020;4.248;2024-01-27T22:33:57;1.90;99.90
16301;DHT22;8258;51.020;4.248;2024-01-27T22:36:25;1.80;99.90
16301;DHT22;8258;51.020;4.248;2024-01-27T22:38:53;1.80;99.90
16301;DHT22;8258;51.020;4.248;2024-01-27T22:41:21;1.80;99.90
16301;DHT22;8258;51.020;4.248;2024-01-27T22:43:49;1.70;99.90
16301;DHT22;8258;51.020;4.248;2024-01-27T22:46:25;1.70;99.90
16301;DHT22;8258;51.020;4.248;2024-01-27T22:48:57;1.70;99.90
16301;DHT22;8258;51.020;4.248;2024-01-27T22:51:31;1.70;99.90
16301;DHT22;8258;51.020;4.248;2024-01-27T22:54:07;1.60;99.90
16301;DHT22;8258;51.020;4.248;2024-01-27T22:56:36;1.60;99.90
16301;DHT22;8258;51.020;4.248;2024-01-27T22:59:03;1.60;99.90
16301;DHT22;8258;51.020;4.248;2024-01-27T23:01:30;1.60;99.90
16301;DHT22;8258;51.020;4.248;2024-01-27T23:04:00;1.70;99.90
16301;DHT22;8258;51.020;4.248;2024-01-27T23:06:27;1.60;99.90
16301;DHT22;8258;51.020;4.248;2024-01-27T23:08:54;1.60;99.90
16301;DHT22;8258;51.020;4.248;2024-01-27T23:11:20;1.60;99.90
16301;DHT22;8258;51.020;4.248;2024-01-27T23:16:25;1.60;99.90
16301;DHT22;8258;51.020;4.248;2024-01-27T23:18:53;1.50;99.90
16301;DHT22;8258;51.020;4.248;2024-01-27T23:21:28;1.50;99.90
16301;DHT22;8258;51.020;4.248;2024-01-27T23:23:56;1.60;99.90
16301;DHT22;8258;51.020;4.248;2024-01-27T23:26:24;1.60;99.90
16301;DHT22;8258;51.020;4.248;2024-01-27T23:28:51;1.60;99.90
16301;DHT22;8258;51.020;4.248;2024-01-27T23:31:19;1.50;99.90
16301;DHT22;8258;51.020;4.248;2024-01-27T23:33:47;1.50;99.90
16301;DHT22;8258;51.020;4.248;2024-01-27T23:36:14;1.50;99.90
16301;DHT22;8258;51.020;4.248;2024-01-27T23:38:42;1.50;99.90
16301;DHT22;8258;51.020;4.248;2024-01-27T23:41:11;1.50;99.90
16301;DHT22;8258;51.020;4.248;2024-01-27T23:43:39;1.50;99.90
16301;DHT22;8258;51.020;4.248;2024-01-27T23:46:23;1.50;99.90
16301;DHT22;8258;51.020;4.248;2024-01-27T23:48:51;1.50;99.90
16301;DHT22;8258;51.020;4.248;2024-01-27T23:51:18;1.50;99.90
16301;DHT22;8258;51.020;4.248;2024-01-27T23:56:30;1.30;99.90
16301;DHT22;8258;51.020;4.248;2024-01-27T23:59:03;1.40;99.90
